sensor_id;sensor_type;location;lat;lon;timestamp;P1;durP1;ratioP1;P2;durP2;ratioP2
35689;SDS011;26977;44.830;-0.674;2022-11-15T00:00:46;12.38;;;2.85;;
35689;SDS011;26977;44.830;-0.674;2022-11-15T00:03:16;13.35;;;3.42;;
35689;SDS011;26977;44.830;-0.674;2022-11-15T00:05:43;9.73;;;2.38;;
35689;SDS011;26977;44.830;-0.674;2022-11-15T00:08:09;9.57;;;2.75;;
35689;SDS011;26977;44.830;-0.674;2022-11-15T00:10:36;11.93;;;2.90;;
35689;SDS011;26977;44.830;-0.674;2022-11-15T00:13:11;10.57;;;3.30;;
35689;SDS011;26977;44.830;-0.674;2022-11-15T00:15:38;12.40;;;3.33;;
35689;SDS011;26977;44.830;-0.674;2022-11-15T00:18:06;10.90;;;3.25;;
35689;SDS011;26977;44.830;-0.674;2022-11-15T00:20:39;9.93;;;3.38;;
35689;SDS011;26977;44.830;-0.674;2022-11-15T00:23:05;12.02;;;3.35;;
35689;SDS011;26977;44.830;-0.674;2022-11-15T00:25:32;13.23;;;3.92;;
35689;SDS011;26977;44.830;-0.674;2022-11-15T00:27:58;14.50;;;3.75;;
35689;SDS011;26977;44.830;-0.674;2022-11-15T00:30:25;11.18;;;2.97;;
35689;SDS011;26977;44.830;-0.674;2022-11-15T00:32:51;11.00;;;2.67;;
35689;SDS011;26977;44.830;-0.674;2022-11-15T00:35:17;10.95;;;3.10;;
35689;SDS011;26977;44.830;-0.674;2022-11-15T00:37:43;10.95;;;2.88;;
35689;SDS011;26977;44.830;-0.674;2022-11-15T00:40:09;10.60;;;3.22;;
35689;SDS011;26977;44.830;-0.674;2022-11-15T00:42:36;14.98;;;3.33;;
35689;SDS011;26977;44.830;-0.674;2022-11-15T00:45:02;6.97;;;2.88;;
35689;SDS011;26977;44.830;-0.674;2022-11-15T00:47:27;14.38;;;3.20;;
35689;SDS011;26977;44.830;-0.674;2022-11-15T00:49:53;16.20;;;3.20;;
35689;SDS011;26977;44.830;-0.674;2022-11-15T00:52:19;12.85;;;2.83;;
35689;SDS011;26977;44.830;-0.674;2022-11-15T00:54:44;15.68;;;3.25;;
35689;SDS011;26977;44.830;-0.674;2022-11-15T00:57:11;6.97;;;2.67;;
35689;SDS011;26977;44.830;-0.674;2022-11-15T00:59:36;12.25;;;3.38;;
35689;SDS011;26977;44.830;-0.674;2022-11-15T01:02:02;12.38;;;3.05;;
35689;SDS011;26977;44.830;-0.674;2022-11-15T01:04:28;10.00;;;2.97;;
35689;SDS011;26977;44.830;-0.674;2022-11-15T01:06:53;12.50;;;3.90;;
35689;SDS011;26977;44.830;-0.674;2022-11-15T01:09:19;9.20;;;3.08;;
35689;SDS011;26977;44.830;-0.674;2022-11-15T01:11:45;10.10;;;3.42;;
35689;SDS011;26977;44.830;-0.674;2022-11-15T01:14:11;12.30;;;3.40;;
35689;SDS011;26977;44.830;-0.674;2022-11-15T01:16:36;7.85;;;2.83;;
35689;SDS011;26977;44.830;-0.674;2022-11-15T01:19:02;13.13;;;3.30;;
35689;SDS011;26977;44.830;-0.674;2022-11-15T01:21:28;16.48;;;3.25;;
35689;SDS011;26977;44.830;-0.674;2022-11-15T01:23:55;13.50;;;3.92;;
35689;SDS011;26977;44.830;-0.674;2022-11-15T01:26:22;11.65;;;3.38;;
35689;SDS011;26977;44.830;-0.674;2022-11-15T01:28:49;15.05;;;3.63;;
35689;SDS011;26977;44.830;-0.674;2022-11-15T01:31:16;9.50;;;3.28;;
35689;SDS011;26977;44.830;-0.674;2022-11-15T01:33:43;8.57;;;3.63;;
35689;SDS011;26977;44.830;-0.674;2022-11-15T01:36:16;13.50;;;3.33;;
35689;SDS011;26977;44.830;-0.674;2022-11-15T01:38:44;12.95;;;3.00;;
35689;SDS011;26977;44.830;-0.674;2022-11-15T01:41:20;9.50;;;2.83;;
35689;SDS011;26977;44.830;-0.674;2022-11-15T01:43:57;11.77;;;3.20;;
35689;SDS011;26977;44.830;-0.674;2022-11-15T01:47:02;18.75;;;4.18;;
35689;SDS011;26977;44.830;-0.674;2022-11-15T01:49:33;7.95;;;2.80;;
35689;SDS011;26977;44.830;-0.674;2022-11-15T01:52:02;9.70;;;3.20;;
35689;SDS011;26977;44.830;-0.674;2022-11-15T01:54:32;11.00;;;3.38;;
35689;SDS011;26977;44.830;-0.674;2022-11-15T01:57:07;9.80;;;3.30;;
35689;SDS011;26977;44.830;-0.674;2022-11-15T01:59:36;9.57;;;2.88;;
35689;SDS011;26977;44.830;-0.674;2022-11-15T02:02:04;10.77;;;2.95;;
35689;SDS011;26977;44.830;-0.674;2022-11-15T02:04:40;6.38;;;2.80;;
35689;SDS011;26977;44.830;-0.674;2022-11-15T02:07:08;10.20;;;3.20;;
35689;SDS011;26977;44.830;-0.674;2022-11-15T02:09:36;9.38;;;2.97;;
35689;SDS011;26977;44.830;-0.674;2022-11-15T02:12:02;8.23;;;3.20;;
35689;SDS011;26977;44.830;-0.674;2022-11-15T02:14:28;12.93;;;3.30;;
35689;SDS011;26977;44.830;-0.674;2022-11-15T02:17:02;6.30;;;2.80;;
35689;SDS011;26977;44.830;-0.674;2022-11-15T02:36:30;7.22;;;2.55;;
35689;SDS011;26977;44.830;-0.674;2022-11-15T02:39:11;11.63;;;2.25;;
35689;SDS011;26977;44.830;-0.674;2022-11-15T02:42:35;10.15;;;2.65;;
35689;SDS011;26977;44.830;-0.674;2022-11-15T02:45:11;8.02;;;2.42;;
35689;SDS011;26977;44.830;-0.674;2022-11-15T02:47:43;7.88;;;2.90;;
35689;SDS011;26977;44.830;-0.674;2022-11-15T02:50:12;10.80;;;2.45;;
35689;SDS011;26977;44.830;-0.674;2022-11-15T02:52:40;8.77;;;2.40;;
35689;SDS011;26977;44.830;-0.674;2022-11-15T03:00:35;6.28;;;2.17;;
35689;SDS011;26977;44.830;-0.674;2022-11-15T03:11:29;8.85;;;2.70;;
35689;SDS011;26977;44.830;-0.674;2022-11-15T03:14:07;9.13;;;3.40;;
35689;SDS011;26977;44.830;-0.674;2022-11-15T03:16:40;11.45;;;3.30;;
35689;SDS011;26977;44.830;-0.674;2022-11-15T03:19:44;9.82;;;2.40;;
35689;SDS011;26977;44.830;-0.674;2022-11-15T03:22:10;8.27;;;2.53;;
35689;SDS011;26977;44.830;-0.674;2022-11-15T03:24:39;10.20;;;2.83;;
35689;SDS011;26977;44.830;-0.674;2022-11-15T03:27:07;11.25;;;2.67;;
35689;SDS011;26977;44.830;-0.674;2022-11-15T03:29:38;7.75;;;2.95;;
35689;SDS011;26977;44.830;-0.674;2022-11-15T03:32:11;8.23;;;2.60;;
35689;SDS011;26977;44.830;-0.674;2022-11-15T03:37:34;9.07;;;2.30;;
35689;SDS011;26977;44.830;-0.674;2022-11-15T03:40:02;10.30;;;2.90;;
35689;SDS011;26977;44.830;-0.674;2022-11-15T03:47:48;7.10;;;2.97;;
35689;SDS011;26977;44.830;-0.674;2022-11-15T03:50:19;9.07;;;2.42;;
35689;SDS011;26977;44.830;-0.674;2022-11-15T03:52:47;7.85;;;2.65;;
35689;SDS011;26977;44.830;-0.674;2022-11-15T03:55:15;9.88;;;2.65;;
35689;SDS011;26977;44.830;-0.674;2022-11-15T03:57:44;5.85;;;2.67;;
35689;SDS011;26977;44.830;-0.674;2022-11-15T04:00:14;5.43;;;2.50;;
35689;SDS011;26977;44.830;-0.674;2022-11-15T04:02:40;6.93;;;2.55;;
35689;SDS011;26977;44.830;-0.674;2022-11-15T04:05:05;6.57;;;2.25;;
35689;SDS011;26977;44.830;-0.674;2022-11-15T04:07:31;8.07;;;2.60;;
35689;SDS011;26977;44.830;-0.674;2022-11-15T04:09:57;7.70;;;2.50;;
35689;SDS011;26977;44.830;-0.674;2022-11-15T04:12:32;6.47;;;2.30;;
35689;SDS011;26977;44.830;-0.674;2022-11-15T04:15:03;7.60;;;2.30;;
35689;SDS011;26977;44.830;-0.674;2022-11-15T04:17:35;5.57;;;2.20;;
35689;SDS011;26977;44.830;-0.674;2022-11-15T04:20:04;5.70;;;2.30;;
35689;SDS011;26977;44.830;-0.674;2022-11-15T04:22:51;5.97;;;2.42;;
35689;SDS011;26977;44.830;-0.674;2022-11-15T04:25:37;6.20;;;2.38;;
35689;SDS011;26977;44.830;-0.674;2022-11-15T04:28:02;11.07;;;2.50;;
35689;SDS011;26977;44.830;-0.674;2022-11-15T04:30:28;7.25;;;2.28;;
35689;SDS011;26977;44.830;-0.674;2022-11-15T04:32:54;6.40;;;2.30;;
35689;SDS011;26977;44.830;-0.674;2022-11-15T04:35:19;5.32;;;2.30;;
35689;SDS011;26977;44.830;-0.674;2022-11-15T04:37:45;6.65;;;2.30;;
35689;SDS011;26977;44.830;-0.674;2022-11-15T04:40:11;5.30;;;2.40;;
35689;SDS011;26977;44.830;-0.674;2022-11-15T04:42:36;8.20;;;2.60;;
35689;SDS011;26977;44.830;-0.674;2022-11-15T04:45:02;5.88;;;2.35;;
35689;SDS011;26977;44.830;-0.674;2022-11-15T04:47:28;6.97;;;2.85;;
35689;SDS011;26977;44.830;-0.674;2022-11-15T04:49:54;4.70;;;2.33;;
35689;SDS011;26977;44.830;-0.674;2022-11-15T04:52:20;6.55;;;2.67;;
35689;SDS011;26977;44.830;-0.674;2022-11-15T04:54:45;5.25;;;2.60;;
35689;SDS011;26977;44.830;-0.674;2022-11-15T04:57:11;8.93;;;3.28;;
35689;SDS011;26977;44.830;-0.674;2022-11-15T04:59:37;5.20;;;2.70;;
35689;SDS011;26977;44.830;-0.674;2022-11-15T05:02:02;5.15;;;2.47;;
35689;SDS011;26977;44.830;-0.674;2022-11-15T05:04:28;7.53;;;2.70;;
35689;SDS011;26977;44.830;-0.674;2022-11-15T05:06:55;10.43;;;3.13;;
35689;SDS011;26977;44.830;-0.674;2022-11-15T05:09:21;5.75;;;2.65;;
35689;SDS011;26977;44.830;-0.674;2022-11-15T05:11:47;6.72;;;2.70;;
35689;SDS011;26977;44.830;-0.674;2022-11-15T05:14:13;12.70;;;3.13;;
35689;SDS011;26977;44.830;-0.674;2022-11-15T05:16:39;8.18;;;3.22;;
35689;SDS011;26977;44.830;-0.674;2022-11-15T05:19:05;8.07;;;3.35;;
35689;SDS011;26977;44.830;-0.674;2022-11-15T05:21:30;13.07;;;3.22;;
35689;SDS011;26977;44.830;-0.674;2022-11-15T05:23:57;5.93;;;3.58;;
35689;SDS011;26977;44.830;-0.674;2022-11-15T05:26:24;4.85;;;3.20;;
35689;SDS011;26977;44.830;-0.674;2022-11-15T05:28:56;7.18;;;3.22;;
35689;SDS011;26977;44.830;-0.674;2022-11-15T05:31:23;5.28;;;3.20;;
35689;SDS011;26977;44.830;-0.674;2022-11-15T05:33:49;5.68;;;3.15;;
35689;SDS011;26977;44.830;-0.674;2022-11-15T05:39:06;7.20;;;3.25;;
35689;SDS011;26977;44.830;-0.674;2022-11-15T05:41:36;7.13;;;3.38;;
35689;SDS011;26977;44.830;-0.674;2022-11-15T05:44:06;8.85;;;3.42;;
35689;SDS011;26977;44.830;-0.674;2022-11-15T05:46:34;8.85;;;3.38;;
35689;SDS011;26977;44.830;-0.674;2022-11-15T05:49:02;7.18;;;3.53;;
35689;SDS011;26977;44.830;-0.674;2022-11-15T05:51:30;8.15;;;3.13;;
35689;SDS011;26977;44.830;-0.674;2022-11-15T05:53:57;5.97;;;3.30;;
35689;SDS011;26977;44.830;-0.674;2022-11-15T05:56:24;7.55;;;3.58;;
35689;SDS011;26977;44.830;-0.674;2022-11-15T05:58:51;6.43;;;3.83;;
35689;SDS011;26977;44.830;-0.674;2022-11-15T06:01:20;4.88;;;3.08;;
35689;SDS011;26977;44.830;-0.674;2022-11-15T06:03:47;9.10;;;3.47;;
35689;SDS011;26977;44.830;-0.674;2022-11-15T06:06:13;8.73;;;3.78;;
35689;SDS011;26977;44.830;-0.674;2022-11-15T06:08:39;7.03;;;3.55;;
35689;SDS011;26977;44.830;-0.674;2022-11-15T06:11:05;4.40;;;3.10;;
35689;SDS011;26977;44.830;-0.674;2022-11-15T06:13:32;4.20;;;3.10;;
35689;SDS011;26977;44.830;-0.674;2022-11-15T06:15:58;7.03;;;3.60;;
35689;SDS011;26977;44.830;-0.674;2022-11-15T06:18:24;6.50;;;3.55;;
35689;SDS011;26977;44.830;-0.674;2022-11-15T06:20:50;7.32;;;3.45;;
35689;SDS011;26977;44.830;-0.674;2022-11-15T06:23:15;7.50;;;3.25;;
35689;SDS011;26977;44.830;-0.674;2022-11-15T06:25:41;8.82;;;3.83;;
35689;SDS011;26977;44.830;-0.674;2022-11-15T06:28:07;5.50;;;3.20;;
35689;SDS011;26977;44.830;-0.674;2022-11-15T06:30:33;6.00;;;3.63;;
35689;SDS011;26977;44.830;-0.674;2022-11-15T06:33:02;6.90;;;3.20;;
35689;SDS011;26977;44.830;-0.674;2022-11-15T06:35:30;7.72;;;3.58;;
35689;SDS011;26977;44.830;-0.674;2022-11-15T06:38:02;7.40;;;3.58;;
35689;SDS011;26977;44.830;-0.674;2022-11-15T06:40:29;8.52;;;4.05;;
35689;SDS011;26977;44.830;-0.674;2022-11-15T06:42:58;9.23;;;4.35;;
35689;SDS011;26977;44.830;-0.674;2022-11-15T06:45:24;17.38;;;3.72;;
35689;SDS011;26977;44.830;-0.674;2022-11-15T06:47:50;6.05;;;3.40;;
35689;SDS011;26977;44.830;-0.674;2022-11-15T06:50:16;6.30;;;3.22;;
35689;SDS011;26977;44.830;-0.674;2022-11-15T06:52:41;8.60;;;3.53;;
35689;SDS011;26977;44.830;-0.674;2022-11-15T06:55:07;4.95;;;3.20;;
35689;SDS011;26977;44.830;-0.674;2022-11-15T06:57:33;9.23;;;3.20;;
35689;SDS011;26977;44.830;-0.674;2022-11-15T06:59:59;7.20;;;3.15;;
35689;SDS011;26977;44.830;-0.674;2022-11-15T07:02:25;5.13;;;3.13;;
35689;SDS011;26977;44.830;-0.674;2022-11-15T07:04:50;9.20;;;4.10;;
35689;SDS011;26977;44.830;-0.674;2022-11-15T07:07:16;4.70;;;3.35;;
35689;SDS011;26977;44.830;-0.674;2022-11-15T07:09:42;6.70;;;3.60;;
35689;SDS011;26977;44.830;-0.674;2022-11-15T07:12:07;8.00;;;3.60;;
35689;SDS011;26977;44.830;-0.674;2022-11-15T07:14:33;10.10;;;3.75;;
35689;SDS011;26977;44.830;-0.674;2022-11-15T07:16:59;9.82;;;3.70;;
35689;SDS011;26977;44.830;-0.674;2022-11-15T07:19:25;9.00;;;4.00;;
35689;SDS011;26977;44.830;-0.674;2022-11-15T07:21:51;10.57;;;3.95;;
35689;SDS011;26977;44.830;-0.674;2022-11-15T07:24:16;9.35;;;3.55;;
35689;SDS011;26977;44.830;-0.674;2022-11-15T07:26:42;9.38;;;4.65;;
35689;SDS011;26977;44.830;-0.674;2022-11-15T07:29:07;6.63;;;4.57;;
35689;SDS011;26977;44.830;-0.674;2022-11-15T07:31:33;10.95;;;3.83;;
35689;SDS011;26977;44.830;-0.674;2022-11-15T07:33:59;8.77;;;3.65;;
35689;SDS011;26977;44.830;-0.674;2022-11-15T07:36:24;8.38;;;3.97;;
35689;SDS011;26977;44.830;-0.674;2022-11-15T07:38:50;4.43;;;3.70;;
35689;SDS011;26977;44.830;-0.674;2022-11-15T07:41:16;9.65;;;3.90;;
35689;SDS011;26977;44.830;-0.674;2022-11-15T07:43:41;6.47;;;3.67;;
35689;SDS011;26977;44.830;-0.674;2022-11-15T07:46:08;8.40;;;3.60;;
35689;SDS011;26977;44.830;-0.674;2022-11-15T07:48:34;7.25;;;4.43;;
35689;SDS011;26977;44.830;-0.674;2022-11-15T07:51:05;6.80;;;4.30;;
35689;SDS011;26977;44.830;-0.674;2022-11-15T07:53:31;8.18;;;4.88;;
35689;SDS011;26977;44.830;-0.674;2022-11-15T07:55:57;8.88;;;4.32;;
35689;SDS011;26977;44.830;-0.674;2022-11-15T07:58:22;6.90;;;4.88;;
35689;SDS011;26977;44.830;-0.674;2022-11-15T08:00:48;10.40;;;3.92;;
35689;SDS011;26977;44.830;-0.674;2022-11-15T08:03:14;8.52;;;5.53;;
35689;SDS011;26977;44.830;-0.674;2022-11-15T08:05:41;8.15;;;4.40;;
35689;SDS011;26977;44.830;-0.674;2022-11-15T08:08:08;9.30;;;3.72;;
35689;SDS011;26977;44.830;-0.674;2022-11-15T08:10:35;10.85;;;4.15;;
35689;SDS011;26977;44.830;-0.674;2022-11-15T08:13:03;6.57;;;3.90;;
35689;SDS011;26977;44.830;-0.674;2022-11-15T08:15:30;9.90;;;3.78;;
35689;SDS011;26977;44.830;-0.674;2022-11-15T08:17:57;8.90;;;4.35;;
35689;SDS011;26977;44.830;-0.674;2022-11-15T08:20:25;12.10;;;3.88;;
35689;SDS011;26977;44.830;-0.674;2022-11-15T08:22:54;7.57;;;3.58;;
35689;SDS011;26977;44.830;-0.674;2022-11-15T08:25:25;7.28;;;3.67;;
35689;SDS011;26977;44.830;-0.674;2022-11-15T08:27:52;7.10;;;3.40;;
35689;SDS011;26977;44.830;-0.674;2022-11-15T08:30:19;8.45;;;3.60;;
35689;SDS011;26977;44.830;-0.674;2022-11-15T08:32:44;10.07;;;3.90;;
35689;SDS011;26977;44.830;-0.674;2022-11-15T08:35:10;9.85;;;4.15;;
35689;SDS011;26977;44.830;-0.674;2022-11-15T08:37:36;9.73;;;3.45;;
35689;SDS011;26977;44.830;-0.674;2022-11-15T08:40:02;8.07;;;2.90;;
35689;SDS011;26977;44.830;-0.674;2022-11-15T08:42:28;5.03;;;2.95;;
35689;SDS011;26977;44.830;-0.674;2022-11-15T08:44:54;5.63;;;3.10;;
35689;SDS011;26977;44.830;-0.674;2022-11-15T08:47:20;5.53;;;3.05;;
35689;SDS011;26977;44.830;-0.674;2022-11-15T08:49:45;8.15;;;3.10;;
35689;SDS011;26977;44.830;-0.674;2022-11-15T08:52:11;7.30;;;2.78;;
35689;SDS011;26977;44.830;-0.674;2022-11-15T08:54:37;8.25;;;2.67;;
35689;SDS011;26977;44.830;-0.674;2022-11-15T08:57:02;5.22;;;2.88;;
35689;SDS011;26977;44.830;-0.674;2022-11-15T08:59:28;5.78;;;2.90;;
35689;SDS011;26977;44.830;-0.674;2022-11-15T09:01:53;5.45;;;3.10;;
35689;SDS011;26977;44.830;-0.674;2022-11-15T09:04:19;9.93;;;3.13;;
35689;SDS011;26977;44.830;-0.674;2022-11-15T09:06:45;5.78;;;3.00;;
35689;SDS011;26977;44.830;-0.674;2022-11-15T09:09:10;8.15;;;3.00;;
35689;SDS011;26977;44.830;-0.674;2022-11-15T09:11:36;5.93;;;3.20;;
35689;SDS011;26977;44.830;-0.674;2022-11-15T09:14:02;5.35;;;2.85;;
35689;SDS011;26977;44.830;-0.674;2022-11-15T09:16:28;4.10;;;2.70;;
35689;SDS011;26977;44.830;-0.674;2022-11-15T09:18:55;5.90;;;2.80;;
35689;SDS011;26977;44.830;-0.674;2022-11-15T09:21:21;7.13;;;2.95;;
35689;SDS011;26977;44.830;-0.674;2022-11-15T09:23:47;8.93;;;3.10;;
35689;SDS011;26977;44.830;-0.674;2022-11-15T09:26:16;9.73;;;3.05;;
35689;SDS011;26977;44.830;-0.674;2022-11-15T09:28:41;9.23;;;3.10;;
35689;SDS011;26977;44.830;-0.674;2022-11-15T09:31:07;7.95;;;2.75;;
35689;SDS011;26977;44.830;-0.674;2022-11-15T09:33:33;6.43;;;2.58;;
35689;SDS011;26977;44.830;-0.674;2022-11-15T09:36:00;6.50;;;2.70;;
35689;SDS011;26977;44.830;-0.674;2022-11-15T09:38:27;8.15;;;3.17;;
35689;SDS011;26977;44.830;-0.674;2022-11-15T09:41:07;6.10;;;2.90;;
35689;SDS011;26977;44.830;-0.674;2022-11-15T09:44:38;8.68;;;3.65;;
35689;SDS011;26977;44.830;-0.674;2022-11-15T09:46:43;8.45;;;3.13;;
35689;SDS011;26977;44.830;-0.674;2022-11-15T09:49:26;7.18;;;3.00;;
35689;SDS011;26977;44.830;-0.674;2022-11-15T09:51:54;10.30;;;3.25;;
35689;SDS011;26977;44.830;-0.674;2022-11-15T09:57:09;11.15;;;3.67;;
35689;SDS011;26977;44.830;-0.674;2022-11-15T09:59:41;9.85;;;3.90;;
35689;SDS011;26977;44.830;-0.674;2022-11-15T10:04:50;8.70;;;3.83;;
35689;SDS011;26977;44.830;-0.674;2022-11-15T10:07:28;8.30;;;4.03;;
35689;SDS011;26977;44.830;-0.674;2022-11-15T10:12:40;10.70;;;4.32;;
35689;SDS011;26977;44.830;-0.674;2022-11-15T10:15:11;11.18;;;4.45;;
35689;SDS011;26977;44.830;-0.674;2022-11-15T10:20:22;7.47;;;3.67;;
35689;SDS011;26977;44.830;-0.674;2022-11-15T10:22:51;6.35;;;3.53;;
35689;SDS011;26977;44.830;-0.674;2022-11-15T10:25:28;8.13;;;3.75;;
35689;SDS011;26977;44.830;-0.674;2022-11-15T10:30:34;8.45;;;3.58;;
35689;SDS011;26977;44.830;-0.674;2022-11-15T10:33:11;8.05;;;3.80;;
35689;SDS011;26977;44.830;-0.674;2022-11-15T10:41:21;7.60;;;3.80;;
35689;SDS011;26977;44.830;-0.674;2022-11-15T10:44:07;8.40;;;3.80;;
35689;SDS011;26977;44.830;-0.674;2022-11-15T10:46:37;7.78;;;4.32;;
35689;SDS011;26977;44.830;-0.674;2022-11-15T10:49:24;7.82;;;3.67;;
35689;SDS011;26977;44.830;-0.674;2022-11-15T10:52:04;7.10;;;4.28;;
35689;SDS011;26977;44.830;-0.674;2022-11-15T10:54:42;7.35;;;3.90;;
35689;SDS011;26977;44.830;-0.674;2022-11-15T10:57:17;8.82;;;4.30;;
35689;SDS011;26977;44.830;-0.674;2022-11-15T10:59:48;9.40;;;3.85;;
35689;SDS011;26977;44.830;-0.674;2022-11-15T11:02:26;8.65;;;3.80;;
35689;SDS011;26977;44.830;-0.674;2022-11-15T11:04:54;7.57;;;4.07;;
35689;SDS011;26977;44.830;-0.674;2022-11-15T11:07:25;6.65;;;3.45;;
35689;SDS011;26977;44.830;-0.674;2022-11-15T11:10:26;6.43;;;3.60;;
35689;SDS011;26977;44.830;-0.674;2022-11-15T11:12:46;5.90;;;3.05;;
35689;SDS011;26977;44.830;-0.674;2022-11-15T11:15:12;11.00;;;2.92;;
35689;SDS011;26977;44.830;-0.674;2022-11-15T11:23:15;7.55;;;3.20;;
35689;SDS011;26977;44.830;-0.674;2022-11-15T11:28:44;6.93;;;3.03;;
35689;SDS011;26977;44.830;-0.674;2022-11-15T11:38:34;6.30;;;3.10;;
35689;SDS011;26977;44.830;-0.674;2022-11-15T11:52:27;18.42;;;12.82;;
35689;SDS011;26977;44.830;-0.674;2022-11-15T11:55:05;10.13;;;4.07;;
35689;SDS011;26977;44.830;-0.674;2022-11-15T11:57:43;8.07;;;3.65;;
35689;SDS011;26977;44.830;-0.674;2022-11-15T12:02:39;5.30;;;3.10;;
35689;SDS011;26977;44.830;-0.674;2022-11-15T12:05:29;6.38;;;2.90;;
35689;SDS011;26977;44.830;-0.674;2022-11-15T12:08:46;6.53;;;2.97;;
35689;SDS011;26977;44.830;-0.674;2022-11-15T12:11:17;5.20;;;2.67;;
35689;SDS011;26977;44.830;-0.674;2022-11-15T12:13:53;7.03;;;2.88;;
35689;SDS011;26977;44.830;-0.674;2022-11-15T12:16:23;6.72;;;2.97;;
35689;SDS011;26977;44.830;-0.674;2022-11-15T12:18:53;7.63;;;3.72;;
35689;SDS011;26977;44.830;-0.674;2022-11-15T12:24:06;7.88;;;2.63;;
35689;SDS011;26977;44.830;-0.674;2022-11-15T12:26:54;7.45;;;2.13;;
35689;SDS011;26977;44.830;-0.674;2022-11-15T12:29:39;8.63;;;2.17;;
35689;SDS011;26977;44.830;-0.674;2022-11-15T12:32:35;6.65;;;2.47;;
35689;SDS011;26977;44.830;-0.674;2022-11-15T12:35:00;11.95;;;2.47;;
35689;SDS011;26977;44.830;-0.674;2022-11-15T12:42:38;6.22;;;1.90;;
35689;SDS011;26977;44.830;-0.674;2022-11-15T12:45:22;10.68;;;2.17;;
35689;SDS011;26977;44.830;-0.674;2022-11-15T12:51:09;8.98;;;1.95;;
35689;SDS011;26977;44.830;-0.674;2022-11-15T12:53:35;6.53;;;1.98;;
35689;SDS011;26977;44.830;-0.674;2022-11-15T13:06:55;9.07;;;1.98;;
35689;SDS011;26977;44.830;-0.674;2022-11-15T13:12:01;9.57;;;1.40;;
35689;SDS011;26977;44.830;-0.674;2022-11-15T13:17:32;6.88;;;1.35;;
35689;SDS011;26977;44.830;-0.674;2022-11-15T13:20:22;6.90;;;1.00;;
35689;SDS011;26977;44.830;-0.674;2022-11-15T13:25:44;8.13;;;1.27;;
35689;SDS011;26977;44.830;-0.674;2022-11-15T13:28:35;6.97;;;1.47;;
35689;SDS011;26977;44.830;-0.674;2022-11-15T13:33:49;8.05;;;1.60;;
35689;SDS011;26977;44.830;-0.674;2022-11-15T13:36:18;13.15;;;1.70;;
35689;SDS011;26977;44.830;-0.674;2022-11-15T13:38:57;9.35;;;1.80;;
35689;SDS011;26977;44.830;-0.674;2022-11-15T13:41:45;12.80;;;1.73;;
35689;SDS011;26977;44.830;-0.674;2022-11-15T13:44:22;12.65;;;2.28;;
35689;SDS011;26977;44.830;-0.674;2022-11-15T13:49:30;10.85;;;1.63;;
35689;SDS011;26977;44.830;-0.674;2022-11-15T13:51:57;13.15;;;1.83;;
35689;SDS011;26977;44.830;-0.674;2022-11-15T13:54:26;15.43;;;1.88;;
35689;SDS011;26977;44.830;-0.674;2022-11-15T13:56:57;18.17;;;2.45;;
35689;SDS011;26977;44.830;-0.674;2022-11-15T14:01:50;11.10;;;1.60;;
35689;SDS011;26977;44.830;-0.674;2022-11-15T14:04:19;8.73;;;1.17;;
35689;SDS011;26977;44.830;-0.674;2022-11-15T14:06:47;6.18;;;1.30;;
35689;SDS011;26977;44.830;-0.674;2022-11-15T14:09:33;10.85;;;1.73;;
35689;SDS011;26977;44.830;-0.674;2022-11-15T14:14:49;6.18;;;0.95;;
35689;SDS011;26977;44.830;-0.674;2022-11-15T14:17:48;8.90;;;0.90;;
35689;SDS011;26977;44.830;-0.674;2022-11-15T14:22:56;6.28;;;1.08;;
35689;SDS011;26977;44.830;-0.674;2022-11-15T14:25:27;11.55;;;1.50;;
35689;SDS011;26977;44.830;-0.674;2022-11-15T14:30:50;10.05;;;1.27;;
35689;SDS011;26977;44.830;-0.674;2022-11-15T14:33:25;7.68;;;1.20;;
35689;SDS011;26977;44.830;-0.674;2022-11-15T14:35:57;8.27;;;1.05;;
35689;SDS011;26977;44.830;-0.674;2022-11-15T14:38:26;4.10;;;0.73;;
35689;SDS011;26977;44.830;-0.674;2022-11-15T14:40:52;7.82;;;0.88;;
35689;SDS011;26977;44.830;-0.674;2022-11-15T14:43:20;8.90;;;1.10;;
35689;SDS011;26977;44.830;-0.674;2022-11-15T14:45:47;10.77;;;1.50;;
35689;SDS011;26977;44.830;-0.674;2022-11-15T14:48:12;14.45;;;1.50;;
35689;SDS011;26977;44.830;-0.674;2022-11-15T14:50:38;10.73;;;1.67;;
35689;SDS011;26977;44.830;-0.674;2022-11-15T14:53:04;10.18;;;1.98;;
35689;SDS011;26977;44.830;-0.674;2022-11-15T14:55:31;8.35;;;1.38;;
35689;SDS011;26977;44.830;-0.674;2022-11-15T14:58:04;7.28;;;1.13;;
35689;SDS011;26977;44.830;-0.674;2022-11-15T15:00:33;10.77;;;1.60;;
35689;SDS011;26977;44.830;-0.674;2022-11-15T15:03:03;11.43;;;2.20;;
35689;SDS011;26977;44.830;-0.674;2022-11-15T15:05:37;12.07;;;1.95;;
35689;SDS011;26977;44.830;-0.674;2022-11-15T15:08:07;10.98;;;1.75;;
35689;SDS011;26977;44.830;-0.674;2022-11-15T15:10:38;13.15;;;1.95;;
35689;SDS011;26977;44.830;-0.674;2022-11-15T15:13:06;11.88;;;1.52;;
35689;SDS011;26977;44.830;-0.674;2022-11-15T15:15:48;13.13;;;2.50;;
35689;SDS011;26977;44.830;-0.674;2022-11-15T15:18:14;12.23;;;1.92;;
35689;SDS011;26977;44.830;-0.674;2022-11-15T15:20:40;23.83;;;2.60;;
35689;SDS011;26977;44.830;-0.674;2022-11-15T15:23:18;14.90;;;2.13;;
35689;SDS011;26977;44.830;-0.674;2022-11-15T15:25:45;16.50;;;2.10;;
35689;SDS011;26977;44.830;-0.674;2022-11-15T15:28:12;19.73;;;2.45;;
35689;SDS011;26977;44.830;-0.674;2022-11-15T15:30:38;18.35;;;3.15;;
35689;SDS011;26977;44.830;-0.674;2022-11-15T15:33:04;17.67;;;2.67;;
35689;SDS011;26977;44.830;-0.674;2022-11-15T15:35:31;19.25;;;3.20;;
35689;SDS011;26977;44.830;-0.674;2022-11-15T15:37:58;17.98;;;2.58;;
35689;SDS011;26977;44.830;-0.674;2022-11-15T15:40:25;17.27;;;2.17;;
35689;SDS011;26977;44.830;-0.674;2022-11-15T15:42:53;22.90;;;2.65;;
35689;SDS011;26977;44.830;-0.674;2022-11-15T15:45:18;19.63;;;2.58;;
35689;SDS011;26977;44.830;-0.674;2022-11-15T15:47:44;19.10;;;2.28;;
35689;SDS011;26977;44.830;-0.674;2022-11-15T15:50:26;16.55;;;2.20;;
35689;SDS011;26977;44.830;-0.674;2022-11-15T15:52:53;13.35;;;1.77;;
35689;SDS011;26977;44.830;-0.674;2022-11-15T15:55:23;17.73;;;2.70;;
35689;SDS011;26977;44.830;-0.674;2022-11-15T15:57:50;19.10;;;3.33;;
35689;SDS011;26977;44.830;-0.674;2022-11-15T16:00:16;30.15;;;3.05;;
35689;SDS011;26977;44.830;-0.674;2022-11-15T16:02:43;25.90;;;3.55;;
35689;SDS011;26977;44.830;-0.674;2022-11-15T16:05:09;25.45;;;3.00;;
35689;SDS011;26977;44.830;-0.674;2022-11-15T16:07:36;28.33;;;3.38;;
35689;SDS011;26977;44.830;-0.674;2022-11-15T16:10:04;19.10;;;3.83;;
35689;SDS011;26977;44.830;-0.674;2022-11-15T16:12:45;22.50;;;3.23;;
35689;SDS011;26977;44.830;-0.674;2022-11-15T16:15:11;25.27;;;3.13;;
35689;SDS011;26977;44.830;-0.674;2022-11-15T16:17:42;29.70;;;4.25;;
35689;SDS011;26977;44.830;-0.674;2022-11-15T16:23:00;28.52;;;4.07;;
35689;SDS011;26977;44.830;-0.674;2022-11-15T16:25:28;25.58;;;3.30;;
35689;SDS011;26977;44.830;-0.674;2022-11-15T16:27:53;25.67;;;3.95;;
35689;SDS011;26977;44.830;-0.674;2022-11-15T16:30:20;27.40;;;4.03;;
35689;SDS011;26977;44.830;-0.674;2022-11-15T16:32:47;29.45;;;4.00;;
35689;SDS011;26977;44.830;-0.674;2022-11-15T16:35:13;25.75;;;4.70;;
35689;SDS011;26977;44.830;-0.674;2022-11-15T16:37:40;35.50;;;4.28;;
35689;SDS011;26977;44.830;-0.674;2022-11-15T16:42:51;37.88;;;4.75;;
35689;SDS011;26977;44.830;-0.674;2022-11-15T16:45:17;31.48;;;3.95;;
35689;SDS011;26977;44.830;-0.674;2022-11-15T16:47:43;26.35;;;5.05;;
35689;SDS011;26977;44.830;-0.674;2022-11-15T16:50:17;32.05;;;4.85;;
35689;SDS011;26977;44.830;-0.674;2022-11-15T16:52:48;40.35;;;4.80;;
35689;SDS011;26977;44.830;-0.674;2022-11-15T16:55:15;28.48;;;3.95;;
35689;SDS011;26977;44.830;-0.674;2022-11-15T16:57:41;36.92;;;4.82;;
35689;SDS011;26977;44.830;-0.674;2022-11-15T17:00:08;28.52;;;4.72;;
35689;SDS011;26977;44.830;-0.674;2022-11-15T17:02:44;35.47;;;4.75;;
35689;SDS011;26977;44.830;-0.674;2022-11-15T17:05:12;39.70;;;5.20;;
35689;SDS011;26977;44.830;-0.674;2022-11-15T17:07:39;35.80;;;5.88;;